createdAt,value
2019-05-03T00:02:25.599Z,7.67
2019-05-03T00:05:02.379Z,7.53
2019-05-03T00:07:33.750Z,8.25
2019-05-03T00:10:05.622Z,8.55
2019-05-03T00:12:36.114Z,8.90
2019-05-03T00:15:12.070Z,8.00
2019-05-03T00:17:43.983Z,8.40
2019-05-03T00:20:14.985Z,8.65
2019-05-03T00:22:45.208Z,8.73
2019-05-03T00:25:15.746Z,8.00
2019-05-03T00:27:46.473Z,7.80
2019-05-03T00:30:17.112Z,8.28
2019-05-03T00:32:47.376Z,7.87
2019-05-03T00:35:28.519Z,7.60
2019-05-03T00:38:02.094Z,7.45
2019-05-03T00:40:35.918Z,7.90
2019-05-03T00:43:06.227Z,7.50
2019-05-03T00:45:36.556Z,7.25
2019-05-03T00:48:09.025Z,7.75
2019-05-03T00:50:39.284Z,7.92
2019-05-03T00:53:11.594Z,7.28
2019-05-03T00:55:42.028Z,7.10
2019-05-03T00:58:12.138Z,7.28
2019-05-03T01:00:42.405Z,7.53
2019-05-03T01:03:12.757Z,7.10
2019-05-03T01:05:43.356Z,7.75
2019-05-03T01:08:13.701Z,7.70
2019-05-03T01:10:44.059Z,8.08
2019-05-03T01:13:14.290Z,7.55
2019-05-03T01:15:46.298Z,8.13
2019-05-03T01:18:18.234Z,8.43
2019-05-03T01:20:48.574Z,8.33
2019-05-03T01:23:18.711Z,9.20
2019-05-03T01:25:48.909Z,9.70
2019-05-03T01:28:19.177Z,10.43
2019-05-03T01:30:51.785Z,10.05
2019-05-03T01:33:22.759Z,11.35
2019-05-03T01:35:52.981Z,10.00
2019-05-03T01:38:23.352Z,9.50
2019-05-03T01:40:54.784Z,9.83
2019-05-03T01:43:25.107Z,10.25
2019-05-03T01:45:56.149Z,9.80
2019-05-03T01:48:41.657Z,9.40
2019-05-03T01:51:26.030Z,8.98
2019-05-03T01:53:56.407Z,9.50
2019-05-03T01:56:27.038Z,9.28
2019-05-03T01:58:57.823Z,10.90
2019-05-03T02:01:32.712Z,11.50
2019-05-03T02:04:12.248Z,11.40
2019-05-03T02:06:42.582Z,11.75
2019-05-03T02:09:13.124Z,13.13
2019-05-03T02:11:43.484Z,15.25
2019-05-03T02:14:13.898Z,16.45
2019-05-03T02:16:46.644Z,16.32
2019-05-03T02:19:16.943Z,16.23
2019-05-03T02:21:47.520Z,14.43
2019-05-03T02:24:18.653Z,13.53
2019-05-03T02:27:02.130Z,13.00
2019-05-03T02:29:32.725Z,12.30
2019-05-03T02:32:03.589Z,12.50
2019-05-03T02:34:34.492Z,12.58
2019-05-03T02:37:04.947Z,10.95
2019-05-03T02:39:35.350Z,10.78
2019-05-03T02:42:11.337Z,11.88
2019-05-03T02:44:39.793Z,11.12
2019-05-03T02:47:15.932Z,11.33
2019-05-03T02:49:48.142Z,11.33
2019-05-03T02:52:37.064Z,11.33
2019-05-03T02:55:08.538Z,11.88
2019-05-03T02:57:39.940Z,11.65
2019-05-03T03:00:11.437Z,10.78
2019-05-03T03:02:42.194Z,11.50
2019-05-03T03:05:12.732Z,11.85
2019-05-03T03:07:45.998Z,12.73
2019-05-03T03:10:18.564Z,13.05
2019-05-03T03:12:55.145Z,12.18
2019-05-03T03:15:26.111Z,12.05
2019-05-03T03:17:56.854Z,11.70
2019-05-03T03:20:27.519Z,11.50
2019-05-03T03:22:58.809Z,12.37
2019-05-03T03:25:32.048Z,12.25
2019-05-03T03:28:05.188Z,12.85
2019-05-03T03:30:57.155Z,12.90
2019-05-03T03:33:28.211Z,13.13
2019-05-03T03:36:01.290Z,13.08
2019-05-03T03:38:28.737Z,14.00
2019-05-03T03:40:59.163Z,14.45
2019-05-03T03:43:31.953Z,13.72
2019-05-03T03:46:06.758Z,14.15
2019-05-03T03:48:38.537Z,13.95
2019-05-03T03:51:10.085Z,14.63
2019-05-03T03:53:42.763Z,14.45
2019-05-03T03:56:15.986Z,13.72
2019-05-03T03:58:46.658Z,14.50
2019-05-03T04:01:21.691Z,14.23
2019-05-03T04:03:51.986Z,13.38
2019-05-03T04:06:26.653Z,12.93
2019-05-03T04:08:56.900Z,13.50
2019-05-03T04:11:27.236Z,13.68
2019-05-03T04:13:58.735Z,13.70
2019-05-03T04:16:30.557Z,13.08
2019-05-03T04:19:05.583Z,14.03
2019-05-03T04:21:36.143Z,12.93
2019-05-03T04:24:07.310Z,13.38
2019-05-03T04:26:37.768Z,12.98
2019-05-03T04:29:08.092Z,13.10
2019-05-03T04:31:38.525Z,13.62
2019-05-03T04:34:09.359Z,12.35
2019-05-03T04:36:40.203Z,13.30
2019-05-03T04:39:10.886Z,12.90
2019-05-03T04:41:42.099Z,11.95
2019-05-03T04:44:15.486Z,12.20
2019-05-03T04:46:46.494Z,12.90
2019-05-03T04:49:17.491Z,11.60
2019-05-03T04:51:47.690Z,11.30
2019-05-03T04:54:21.198Z,11.97
2019-05-03T04:56:52.331Z,11.30
2019-05-03T04:59:25.477Z,10.65
2019-05-03T05:01:57.306Z,10.77
2019-05-03T05:04:29.326Z,11.68
2019-05-03T05:07:00.126Z,10.75
2019-05-03T05:09:31.633Z,10.23
2019-05-03T05:12:05.456Z,10.78
2019-05-03T05:14:35.255Z,11.53
2019-05-03T05:17:06.348Z,10.38
2019-05-03T05:19:44.526Z,10.78
2019-05-03T05:22:24.713Z,11.03
2019-05-03T05:24:58.006Z,11.97
2019-05-03T05:27:30.047Z,11.65
2019-05-03T05:30:04.821Z,12.75
2019-05-03T05:32:36.375Z,14.07
2019-05-03T05:35:07.106Z,13.85
2019-05-03T05:37:38.739Z,14.43
2019-05-03T05:40:09.085Z,14.35
2019-05-03T05:42:39.532Z,13.95
2019-05-03T05:45:11.783Z,14.28
2019-05-03T05:47:49.999Z,21.12
2019-05-03T05:50:25.448Z,23.32
2019-05-03T05:52:56.341Z,21.75
2019-05-03T05:55:28.391Z,21.12
2019-05-03T05:58:08.329Z,21.25
2019-05-03T06:00:40.104Z,16.95
2019-05-03T06:03:10.592Z,16.75
2019-05-03T06:05:41.881Z,17.05
2019-05-03T06:08:16.721Z,17.42
2019-05-03T06:10:57.602Z,17.50
2019-05-03T06:13:29.658Z,27.07
2019-05-03T06:16:01.786Z,30.27
2019-05-03T06:18:54.478Z,37.75
2019-05-03T06:21:32.700Z,21.70
2019-05-03T06:24:08.479Z,22.42
2019-05-03T06:26:44.521Z,20.68
2019-05-03T06:29:15.843Z,17.82
2019-05-03T06:31:51.137Z,17.37
2019-05-03T06:34:21.872Z,28.50
2019-05-03T06:36:55.595Z,17.27
2019-05-03T06:39:25.720Z,15.53
2019-05-03T06:42:01.195Z,15.93
2019-05-03T06:44:31.642Z,16.50
2019-05-03T06:47:08.763Z,17.42
2019-05-03T06:49:39.134Z,16.95
2019-05-03T06:52:09.057Z,17.02
2019-05-03T06:54:41.472Z,17.27
2019-05-03T06:57:14.856Z,16.85
2019-05-03T06:59:47.099Z,16.32
2019-05-03T07:02:37.288Z,15.48
2019-05-03T07:05:29.178Z,14.53
2019-05-03T07:08:06.515Z,15.88
2019-05-03T07:10:38.467Z,16.17
2019-05-03T07:13:09.147Z,17.90
2019-05-03T07:15:39.844Z,18.98
2019-05-03T07:18:10.205Z,19.15
2019-05-03T07:20:54.948Z,17.85
2019-05-03T07:23:26.294Z,19.95
2019-05-03T07:26:00.186Z,22.82
2019-05-03T07:28:43.560Z,18.17
2019-05-03T07:31:04.844Z,15.93
2019-05-03T07:33:35.990Z,16.52
2019-05-03T07:36:06.506Z,14.43
2019-05-03T07:38:37.383Z,14.55
2019-05-03T07:41:07.747Z,14.13
2019-05-03T07:43:38.232Z,14.53
2019-05-03T07:46:10.316Z,19.35
2019-05-03T07:48:42.427Z,16.17
2019-05-03T07:51:14.464Z,16.15
2019-05-03T07:53:45.447Z,14.87
2019-05-03T07:56:19.075Z,14.55
2019-05-03T07:58:59.763Z,13.83
2019-05-03T08:01:29.866Z,13.20
2019-05-03T08:04:00.424Z,13.08
2019-05-03T08:06:30.750Z,12.85
2019-05-03T08:09:01.156Z,12.70
2019-05-03T08:11:35.307Z,12.45
2019-05-03T08:14:07.282Z,12.35
2019-05-03T08:16:37.647Z,10.13
2019-05-03T08:19:08.287Z,11.45
2019-05-03T08:21:39.211Z,9.95
2019-05-03T08:24:11.021Z,11.08
2019-05-03T08:26:42.141Z,10.35
2019-05-03T08:29:16.956Z,12.18
2019-05-03T08:31:54.590Z,11.73
2019-05-03T08:34:29.895Z,13.03
2019-05-03T08:39:44.782Z,14.50
2019-05-03T08:42:22.032Z,12.93
2019-05-03T08:44:56.637Z,13.18
2019-05-03T08:47:36.215Z,12.78
2019-05-03T08:50:10.760Z,12.47
2019-05-03T08:52:51.286Z,11.88
2019-05-03T08:55:25.512Z,12.45
2019-05-03T08:57:57.898Z,11.63
2019-05-03T09:00:31.581Z,10.65
2019-05-03T09:03:07.672Z,10.20
2019-05-03T09:05:40.317Z,9.85
2019-05-03T09:08:12.930Z,12.20
2019-05-03T09:10:48.993Z,12.73
2019-05-03T09:13:25.369Z,12.30
2019-05-03T09:15:57.013Z,10.95
2019-05-03T09:18:28.777Z,11.75
2019-05-03T09:21:00.338Z,12.68
2019-05-03T09:23:35.562Z,12.10
2019-05-03T09:26:08.887Z,13.22
2019-05-03T09:28:47.279Z,11.85
2019-05-03T09:31:24.698Z,11.18
2019-05-03T09:33:57.317Z,11.83
2019-05-03T09:36:28.871Z,11.30
2019-05-03T09:39:00.759Z,10.03
2019-05-03T09:41:34.732Z,12.18
2019-05-03T09:44:07.001Z,12.10
2019-05-03T09:46:38.652Z,12.73
2019-05-03T09:49:16.595Z,10.55
2019-05-03T09:51:49.240Z,11.10
2019-05-03T09:54:22.553Z,12.85
2019-05-03T09:56:58.629Z,9.85
2019-05-03T09:59:31.664Z,10.38
2019-05-03T10:02:04.746Z,9.55
2019-05-03T10:04:37.594Z,10.70
2019-05-03T10:07:10.226Z,11.75
2019-05-03T10:09:51.892Z,12.30
2019-05-03T10:12:25.815Z,10.25
2019-05-03T10:14:59.371Z,11.70
2019-05-03T10:17:35.150Z,12.53
2019-05-03T10:20:15.345Z,12.85
2019-05-03T10:22:50.685Z,8.68
2019-05-03T10:25:45.517Z,8.63
2019-05-03T10:28:21.127Z,8.95
2019-05-03T10:30:56.309Z,10.18
2019-05-03T10:33:48.659Z,8.95
2019-05-03T10:36:25.206Z,9.25
2019-05-03T10:38:59.249Z,11.73
2019-05-03T10:44:10.467Z,8.43
2019-05-03T10:46:41.973Z,9.90
2019-05-03T10:49:15.692Z,9.28
2019-05-03T10:51:50.737Z,8.68
2019-05-03T10:54:24.185Z,8.03
2019-05-03T10:56:57.278Z,8.40
2019-05-03T10:59:30.261Z,8.35
2019-05-03T11:02:11.892Z,8.65
2019-05-03T11:04:46.244Z,7.53
2019-05-03T11:07:28.502Z,9.48
2019-05-03T11:10:00.446Z,15.25
2019-05-03T11:12:34.749Z,16.37
2019-05-03T11:17:37.965Z,8.95
2019-05-03T11:20:10.398Z,9.00
2019-05-03T11:22:44.918Z,9.10
2019-05-03T11:25:18.846Z,9.53
2019-05-03T11:27:52.550Z,10.15
2019-05-03T11:30:24.685Z,10.38
2019-05-03T11:33:02.282Z,8.63
2019-05-03T11:35:44.740Z,8.83
2019-05-03T11:38:25.552Z,7.65
2019-05-03T11:40:57.120Z,8.08
2019-05-03T11:43:28.662Z,10.93
2019-05-03T11:46:00.779Z,10.53
2019-05-03T11:48:32.325Z,8.20
2019-05-03T11:51:04.025Z,7.28
2019-05-03T11:53:38.269Z,7.40
2019-05-03T11:56:10.868Z,6.95
2019-05-03T11:58:45.530Z,6.78
2019-05-03T12:01:20.053Z,10.50
2019-05-03T12:03:51.590Z,6.72
2019-05-03T12:06:24.901Z,7.47
2019-05-03T12:08:59.181Z,7.05
2019-05-03T12:11:38.683Z,7.90
2019-05-03T12:14:16.563Z,7.20
2019-05-03T12:17:20.120Z,7.45
2019-05-03T12:19:49.248Z,7.12
2019-05-03T12:22:22.295Z,7.60
2019-05-03T12:24:56.424Z,8.93
2019-05-03T12:27:28.355Z,11.30
2019-05-03T12:30:02.324Z,14.68
2019-05-03T12:32:37.520Z,15.72
2019-05-03T12:35:09.599Z,13.22
2019-05-03T12:37:41.293Z,13.03
2019-05-03T12:40:14.957Z,12.85
2019-05-03T12:42:46.982Z,13.48
2019-05-03T12:45:24.585Z,11.70
2019-05-03T12:47:56.195Z,13.03
2019-05-03T12:50:28.132Z,9.88
2019-05-03T12:53:02.020Z,7.50
2019-05-03T12:55:35.550Z,8.00
2019-05-03T12:58:08.575Z,6.10
2019-05-03T13:00:55.696Z,6.62
2019-05-03T13:03:32.865Z,6.17
2019-05-03T13:06:07.237Z,6.45
2019-05-03T13:08:42.135Z,6.47
2019-05-03T13:11:19.728Z,9.03
2019-05-03T13:13:55.663Z,16.42
2019-05-03T13:16:27.386Z,17.37
2019-05-03T13:18:59.625Z,16.65
2019-05-03T13:21:31.050Z,11.97
2019-05-03T13:24:02.647Z,11.18
2019-05-03T13:26:35.084Z,9.78
2019-05-03T13:29:06.933Z,9.30
2019-05-03T13:31:38.446Z,9.60
2019-05-03T13:34:10.802Z,7.08
2019-05-03T13:36:45.487Z,6.62
2019-05-03T13:39:26.336Z,7.17
2019-05-03T13:41:57.198Z,9.53
2019-05-03T13:44:31.962Z,15.10
2019-05-03T13:47:04.530Z,7.17
2019-05-03T13:49:40.586Z,7.30
2019-05-03T13:52:15.344Z,7.05
2019-05-03T13:54:47.873Z,8.45
2019-05-03T13:57:24.533Z,9.03
2019-05-03T13:59:56.864Z,10.43
2019-05-03T14:02:29.962Z,12.20
2019-05-03T14:05:01.756Z,14.33
2019-05-03T14:07:35.383Z,9.05
2019-05-03T14:10:08.272Z,5.22
2019-05-03T14:12:40.032Z,6.90
2019-05-03T14:15:12.082Z,8.08
2019-05-03T14:17:43.713Z,7.20
2019-05-03T14:20:20.397Z,7.10
2019-05-03T14:22:53.030Z,7.80
2019-05-03T14:25:24.808Z,6.15
2019-05-03T14:27:59.643Z,7.62
2019-05-03T14:30:34.509Z,6.33
2019-05-03T14:33:06.828Z,7.90
2019-05-03T14:35:38.452Z,7.72
2019-05-03T14:38:09.976Z,13.45
2019-05-03T14:40:52.023Z,10.45
2019-05-03T14:43:26.046Z,8.45
2019-05-03T14:46:01.087Z,8.08
2019-05-03T14:48:36.345Z,8.33
2019-05-03T14:51:14.721Z,7.90
2019-05-03T14:53:47.022Z,7.47
2019-05-03T14:56:25.411Z,7.75
2019-05-03T14:59:00.341Z,6.53
2019-05-03T15:01:43.615Z,7.30
2019-05-03T15:04:18.199Z,8.00
2019-05-03T15:06:50.091Z,7.15
2019-05-03T15:09:22.424Z,7.17
2019-05-03T15:11:55.632Z,6.90
2019-05-03T15:14:27.736Z,7.17
2019-05-03T15:17:01.117Z,7.15
2019-05-03T15:19:34.738Z,7.35
2019-05-03T15:22:07.906Z,6.80
2019-05-03T15:24:40.890Z,6.87
2019-05-03T15:27:17.417Z,7.08
2019-05-03T15:29:50.414Z,7.37
2019-05-03T15:32:28.043Z,7.22
2019-05-03T15:35:01.321Z,7.92
2019-05-03T15:37:35.629Z,8.33
2019-05-03T15:40:08.424Z,8.78
2019-05-03T15:42:41.579Z,8.90
2019-05-03T15:45:14.848Z,7.37
2019-05-03T15:48:04.601Z,15.08
2019-05-03T15:50:37.108Z,8.28
2019-05-03T15:53:08.729Z,7.58
2019-05-03T15:55:55.003Z,6.72
2019-05-03T15:58:29.704Z,8.55
2019-05-03T16:01:01.254Z,8.70
2019-05-03T16:03:35.601Z,8.93
2019-05-03T16:06:07.019Z,7.40
2019-05-03T16:08:38.485Z,7.60
2019-05-03T16:11:10.624Z,6.40
2019-05-03T16:13:44.841Z,6.03
2019-05-03T16:16:17.842Z,6.28
2019-05-03T16:18:51.523Z,5.90
2019-05-03T16:21:25.034Z,5.97
2019-05-03T16:23:58.347Z,5.62
2019-05-03T16:26:32.113Z,5.80
2019-05-03T16:29:05.408Z,5.85
2019-05-03T16:31:37.609Z,6.67
2019-05-03T16:34:10.043Z,6.40
2019-05-03T16:36:45.387Z,6.33
2019-05-03T16:39:16.720Z,6.47
2019-05-03T16:41:48.603Z,6.47
2019-05-03T16:44:21.203Z,6.35
2019-05-03T16:46:55.411Z,7.12
2019-05-03T16:49:27.001Z,8.05
2019-05-03T16:51:58.792Z,6.67
2019-05-03T16:54:32.290Z,6.58
2019-05-03T16:57:05.642Z,6.33
2019-05-03T16:59:37.061Z,6.63
2019-05-03T17:02:08.532Z,6.78
2019-05-03T17:04:51.742Z,6.65
2019-05-03T17:07:41.100Z,6.65
2019-05-03T17:10:19.020Z,6.37
2019-05-03T17:12:50.623Z,6.30
2019-05-03T17:15:22.229Z,6.37
2019-05-03T17:17:53.690Z,6.40
2019-05-03T17:20:25.469Z,6.37
2019-05-03T17:22:57.211Z,6.53
2019-05-03T17:25:28.873Z,5.92
2019-05-03T17:28:04.889Z,6.45
2019-05-03T17:30:38.061Z,6.37
2019-05-03T17:33:09.529Z,6.47
2019-05-03T17:35:41.126Z,6.70
2019-05-03T17:38:12.529Z,5.90
2019-05-03T17:40:46.855Z,6.47
2019-05-03T17:43:29.215Z,6.20
2019-05-03T17:46:09.556Z,6.07
2019-05-03T17:48:41.120Z,6.67
2019-05-03T17:51:15.134Z,7.12
2019-05-03T17:53:56.718Z,6.22
2019-05-03T17:56:30.356Z,6.17
2019-05-03T17:59:04.570Z,6.60
2019-05-03T18:01:42.216Z,6.35
2019-05-03T18:04:15.848Z,6.53
2019-05-03T18:06:52.311Z,7.05
2019-05-03T18:09:26.596Z,6.67
2019-05-03T18:12:00.132Z,6.37
2019-05-03T18:14:34.396Z,6.50
2019-05-03T18:17:07.059Z,6.55
2019-05-03T18:22:20.277Z,5.80
2019-05-03T18:24:58.476Z,6.00
2019-05-03T18:27:31.628Z,5.92
2019-05-03T18:30:06.746Z,5.92
2019-05-03T18:32:40.454Z,6.62
2019-05-03T18:35:15.727Z,6.90
2019-05-03T18:40:24.808Z,6.25
2019-05-03T18:43:07.639Z,6.47
2019-05-03T18:45:47.499Z,6.42
2019-05-03T18:48:24.585Z,6.12
2019-05-03T18:50:58.121Z,6.78
2019-05-03T18:53:34.458Z,6.72
2019-05-03T18:56:06.753Z,6.33
2019-05-03T18:58:39.710Z,6.47
2019-05-03T19:01:14.799Z,6.28
2019-05-03T19:03:51.978Z,6.25
2019-05-03T19:06:30.288Z,6.17
2019-05-03T19:09:05.262Z,6.12
2019-05-03T19:11:51.766Z,6.05
2019-05-03T19:14:25.777Z,5.87
2019-05-03T19:17:02.126Z,5.97
2019-05-03T19:19:44.997Z,6.10
2019-05-03T19:22:16.823Z,6.10
2019-05-03T19:24:49.702Z,6.00
2019-05-03T19:27:21.771Z,6.62
2019-05-03T19:29:55.428Z,5.67
2019-05-03T19:32:28.276Z,6.20
2019-05-03T19:35:00.330Z,5.90
2019-05-03T19:37:31.997Z,6.22
2019-05-03T19:40:06.551Z,6.47
2019-05-03T19:42:40.049Z,6.40
2019-05-03T19:45:12.101Z,6.20
2019-05-03T19:47:44.792Z,5.95
2019-05-03T19:50:17.639Z,5.97
2019-05-03T19:53:02.610Z,6.05
2019-05-03T19:58:05.741Z,6.00
2019-05-03T20:00:39.054Z,6.62
2019-05-03T20:03:12.325Z,6.47
2019-05-03T20:05:51.814Z,6.95
2019-05-03T20:08:31.112Z,6.37
2019-05-03T20:11:17.873Z,5.97
2019-05-03T20:13:52.208Z,5.75
2019-05-03T20:16:25.945Z,6.15
2019-05-03T20:18:57.624Z,6.55
2019-05-03T20:21:30.425Z,5.90
2019-05-03T20:24:05.449Z,5.95
2019-05-03T20:26:38.492Z,5.65
2019-05-03T20:29:10.717Z,6.80
2019-05-03T20:31:44.712Z,6.00
2019-05-03T20:36:48.088Z,6.03
2019-05-03T20:39:22.799Z,5.53
2019-05-03T20:41:56.710Z,6.72
2019-05-03T20:44:30.033Z,6.53
2019-05-03T20:47:14.960Z,6.13
2019-05-03T20:49:48.309Z,6.40
2019-05-03T20:52:21.112Z,6.30
2019-05-03T20:54:55.132Z,6.28
2019-05-03T21:00:00.032Z,6.10
2019-05-03T21:02:35.506Z,6.33
2019-05-03T21:05:09.261Z,7.70
2019-05-03T21:07:45.367Z,6.80
2019-05-03T21:10:17.115Z,7.15
2019-05-03T21:12:49.902Z,7.28
2019-05-03T21:15:40.907Z,6.58
2019-05-03T21:18:24.365Z,7.60
2019-05-03T21:20:57.444Z,6.35
2019-05-03T21:23:35.225Z,7.53
2019-05-03T21:26:13.662Z,6.58
2019-05-03T21:28:44.932Z,6.60
2019-05-03T21:31:16.541Z,7.15
2019-05-03T21:33:48.478Z,7.33
2019-05-03T21:36:25.354Z,7.00
2019-05-03T21:38:56.769Z,7.00
2019-05-03T21:41:29.002Z,6.75
2019-05-03T21:44:02.346Z,6.67
2019-05-03T21:46:45.072Z,7.00
2019-05-03T21:49:25.198Z,7.53
2019-05-03T21:51:58.368Z,7.22
2019-05-03T21:54:30.849Z,7.00
2019-05-03T21:57:02.768Z,7.53
2019-05-03T21:59:35.447Z,7.25
2019-05-03T22:02:08.816Z,7.65
2019-05-03T22:04:44.791Z,7.15
2019-05-03T22:07:16.382Z,7.27
2019-05-03T22:09:48.097Z,7.83
2019-05-03T22:12:19.549Z,7.30
2019-05-03T22:15:10.826Z,7.37
2019-05-03T22:18:02.349Z,7.67
2019-05-03T22:20:39.940Z,7.22
2019-05-03T22:23:16.039Z,7.72
2019-05-03T22:25:47.696Z,6.85
2019-05-03T22:28:19.408Z,7.95
2019-05-03T22:30:51.045Z,7.85
2019-05-03T22:33:24.167Z,7.55
2019-05-03T22:36:07.591Z,8.10
2019-05-03T22:38:28.938Z,8.63
2019-05-03T22:41:01.355Z,7.97
2019-05-03T22:43:34.866Z,8.30
2019-05-03T22:46:06.366Z,7.67
2019-05-03T22:48:37.732Z,7.67
2019-05-03T22:51:09.402Z,7.42
2019-05-03T22:53:40.955Z,7.35
2019-05-03T22:56:14.436Z,8.25
2019-05-03T22:58:46.472Z,7.55
2019-05-03T23:01:18.228Z,7.35
2019-05-03T23:03:49.744Z,7.30
2019-05-03T23:06:22.705Z,7.42
2019-05-03T23:08:56.220Z,6.90
2019-05-03T23:11:27.722Z,7.40
2019-05-03T23:14:04.621Z,7.45
2019-05-03T23:16:36.570Z,7.37
2019-05-03T23:19:07.892Z,7.65
2019-05-03T23:21:44.191Z,7.80
2019-05-03T23:24:15.858Z,7.70
2019-05-03T23:26:47.568Z,7.78
2019-05-03T23:29:19.261Z,7.83
2019-05-03T23:31:50.848Z,7.42
2019-05-03T23:34:24.642Z,7.30
2019-05-03T23:36:56.007Z,7.65
2019-05-03T23:39:27.797Z,7.70
2019-05-03T23:41:59.339Z,8.58
2019-05-03T23:44:30.837Z,8.95
2019-05-03T23:47:06.970Z,10.20
2019-05-03T23:49:38.640Z,10.28
2019-05-03T23:52:26.619Z,10.30
2019-05-03T23:55:00.832Z,9.15
